sensor_id;sensor_type;location;lat;lon;timestamp;P1;durP1;ratioP1;P2;durP2;ratioP2
20908;SDS011;10614;53.198;6.570;2022-09-25T00:00:54;2.63;;;1.00;;
20908;SDS011;10614;53.198;6.570;2022-09-25T00:02:56;2.92;;;1.20;;
20908;SDS011;10614;53.198;6.570;2022-09-25T00:04:59;2.50;;;1.20;;
20908;SDS011;10614;53.198;6.570;2022-09-25T00:07:01;4.13;;;1.30;;
20908;SDS011;10614;53.198;6.570;2022-09-25T00:09:03;2.70;;;1.40;;
20908;SDS011;10614;53.198;6.570;2022-09-25T00:11:05;3.03;;;1.20;;
20908;SDS011;10614;53.198;6.570;2022-09-25T00:13:09;3.65;;;1.35;;
20908;SDS011;10614;53.198;6.570;2022-09-25T00:15:10;4.90;;;1.60;;
20908;SDS011;10614;53.198;6.570;2022-09-25T00:17:12;4.82;;;1.88;;
20908;SDS011;10614;53.198;6.570;2022-09-25T00:19:18;5.78;;;1.50;;
20908;SDS011;10614;53.198;6.570;2022-09-25T00:21:40;4.07;;;1.40;;
20908;SDS011;10614;53.198;6.570;2022-09-25T00:23:42;3.83;;;1.50;;
20908;SDS011;10614;53.198;6.570;2022-09-25T00:25:51;3.83;;;1.30;;
20908;SDS011;10614;53.198;6.570;2022-09-25T00:27:53;4.05;;;1.33;;
20908;SDS011;10614;53.198;6.570;2022-09-25T00:29:55;3.00;;;1.23;;
20908;SDS011;10614;53.198;6.570;2022-09-25T00:31:58;3.63;;;1.48;;
20908;SDS011;10614;53.198;6.570;2022-09-25T00:34:01;2.15;;;1.17;;
20908;SDS011;10614;53.198;6.570;2022-09-25T00:36:05;3.30;;;1.40;;
20908;SDS011;10614;53.198;6.570;2022-09-25T00:38:10;1.83;;;0.90;;
20908;SDS011;10614;53.198;6.570;2022-09-25T00:40:11;3.03;;;1.33;;
20908;SDS011;10614;53.198;6.570;2022-09-25T00:42:17;2.80;;;0.90;;
20908;SDS011;10614;53.198;6.570;2022-09-25T00:46:40;4.50;;;1.27;;
20908;SDS011;10614;53.198;6.570;2022-09-25T00:48:46;6.07;;;1.50;;
20908;SDS011;10614;53.198;6.570;2022-09-25T00:50:51;2.78;;;1.40;;
20908;SDS011;10614;53.198;6.570;2022-09-25T00:52:57;3.35;;;1.13;;
20908;SDS011;10614;53.198;6.570;2022-09-25T00:55:04;4.82;;;1.30;;
20908;SDS011;10614;53.198;6.570;2022-09-25T00:57:10;2.10;;;1.10;;
20908;SDS011;10614;53.198;6.570;2022-09-25T00:59:15;4.15;;;1.30;;
20908;SDS011;10614;53.198;6.570;2022-09-25T01:01:19;2.53;;;1.20;;
20908;SDS011;10614;53.198;6.570;2022-09-25T01:03:21;2.35;;;1.27;;
20908;SDS011;10614;53.198;6.570;2022-09-25T01:05:24;4.10;;;1.35;;
20908;SDS011;10614;53.198;6.570;2022-09-25T01:07:28;2.50;;;1.20;;
20908;SDS011;10614;53.198;6.570;2022-09-25T01:09:31;2.70;;;1.35;;
20908;SDS011;10614;53.198;6.570;2022-09-25T01:11:35;2.25;;;1.23;;
20908;SDS011;10614;53.198;6.570;2022-09-25T01:13:37;4.45;;;1.45;;
20908;SDS011;10614;53.198;6.570;2022-09-25T01:15:41;3.08;;;1.40;;
20908;SDS011;10614;53.198;6.570;2022-09-25T01:17:50;3.65;;;1.42;;
20908;SDS011;10614;53.198;6.570;2022-09-25T01:20:05;2.72;;;1.40;;
20908;SDS011;10614;53.198;6.570;2022-09-25T01:22:19;2.17;;;1.42;;
20908;SDS011;10614;53.198;6.570;2022-09-25T01:24:33;2.90;;;1.50;;
20908;SDS011;10614;53.198;6.570;2022-09-25T01:26:49;4.53;;;1.50;;
20908;SDS011;10614;53.198;6.570;2022-09-25T01:29:10;5.15;;;1.58;;
20908;SDS011;10614;53.198;6.570;2022-09-25T01:31:17;3.00;;;1.60;;
20908;SDS011;10614;53.198;6.570;2022-09-25T01:33:26;3.97;;;1.48;;
20908;SDS011;10614;53.198;6.570;2022-09-25T01:35:36;2.85;;;1.30;;
20908;SDS011;10614;53.198;6.570;2022-09-25T01:37:47;4.32;;;1.60;;
20908;SDS011;10614;53.198;6.570;2022-09-25T01:39:55;3.47;;;1.67;;
20908;SDS011;10614;53.198;6.570;2022-09-25T01:42:04;2.70;;;1.60;;
20908;SDS011;10614;53.198;6.570;2022-09-25T01:44:14;4.93;;;1.80;;
20908;SDS011;10614;53.198;6.570;2022-09-25T01:46:22;3.20;;;1.38;;
20908;SDS011;10614;53.198;6.570;2022-09-25T01:48:29;3.45;;;1.63;;
20908;SDS011;10614;53.198;6.570;2022-09-25T01:50:34;2.35;;;1.20;;
20908;SDS011;10614;53.198;6.570;2022-09-25T01:52:42;2.75;;;1.55;;
20908;SDS011;10614;53.198;6.570;2022-09-25T01:54:48;3.00;;;1.63;;
20908;SDS011;10614;53.198;6.570;2022-09-25T01:56:55;3.95;;;1.85;;
20908;SDS011;10614;53.198;6.570;2022-09-25T01:59:02;4.20;;;1.42;;
20908;SDS011;10614;53.198;6.570;2022-09-25T02:01:09;3.63;;;1.80;;
20908;SDS011;10614;53.198;6.570;2022-09-25T02:03:15;2.83;;;1.38;;
20908;SDS011;10614;53.198;6.570;2022-09-25T02:05:21;2.88;;;1.40;;
20908;SDS011;10614;53.198;6.570;2022-09-25T02:07:29;3.35;;;1.70;;
20908;SDS011;10614;53.198;6.570;2022-09-25T02:09:35;5.13;;;1.83;;
20908;SDS011;10614;53.198;6.570;2022-09-25T02:11:42;3.88;;;1.40;;
20908;SDS011;10614;53.198;6.570;2022-09-25T02:13:49;2.38;;;1.27;;
20908;SDS011;10614;53.198;6.570;2022-09-25T02:15:55;4.68;;;1.80;;
20908;SDS011;10614;53.198;6.570;2022-09-25T02:18:02;2.78;;;1.45;;
20908;SDS011;10614;53.198;6.570;2022-09-25T02:20:24;3.35;;;1.50;;
20908;SDS011;10614;53.198;6.570;2022-09-25T02:22:33;3.55;;;1.50;;
20908;SDS011;10614;53.198;6.570;2022-09-25T02:24:37;3.50;;;1.20;;
20908;SDS011;10614;53.198;6.570;2022-09-25T02:26:44;4.22;;;1.25;;
20908;SDS011;10614;53.198;6.570;2022-09-25T02:28:45;2.88;;;1.40;;
20908;SDS011;10614;53.198;6.570;2022-09-25T02:30:48;3.55;;;1.40;;
20908;SDS011;10614;53.198;6.570;2022-09-25T02:32:54;2.80;;;1.35;;
20908;SDS011;10614;53.198;6.570;2022-09-25T02:34:58;2.45;;;1.17;;
20908;SDS011;10614;53.198;6.570;2022-09-25T02:37:00;2.17;;;0.95;;
20908;SDS011;10614;53.198;6.570;2022-09-25T02:39:02;2.30;;;1.20;;
20908;SDS011;10614;53.198;6.570;2022-09-25T02:41:08;3.33;;;1.30;;
20908;SDS011;10614;53.198;6.570;2022-09-25T02:43:20;3.55;;;1.60;;
20908;SDS011;10614;53.198;6.570;2022-09-25T02:45:32;1.77;;;1.15;;
20908;SDS011;10614;53.198;6.570;2022-09-25T02:47:42;3.97;;;1.30;;
20908;SDS011;10614;53.198;6.570;2022-09-25T02:49:58;3.33;;;1.40;;
20908;SDS011;10614;53.198;6.570;2022-09-25T02:52:08;2.27;;;1.20;;
20908;SDS011;10614;53.198;6.570;2022-09-25T02:54:13;3.60;;;1.45;;
20908;SDS011;10614;53.198;6.570;2022-09-25T02:56:24;2.58;;;1.00;;
20908;SDS011;10614;53.198;6.570;2022-09-25T02:58:31;2.97;;;1.30;;
20908;SDS011;10614;53.198;6.570;2022-09-25T03:00:38;2.22;;;1.05;;
20908;SDS011;10614;53.198;6.570;2022-09-25T03:02:42;3.65;;;1.40;;
20908;SDS011;10614;53.198;6.570;2022-09-25T03:04:46;3.13;;;1.30;;
20908;SDS011;10614;53.198;6.570;2022-09-25T03:06:51;1.40;;;0.90;;
20908;SDS011;10614;53.198;6.570;2022-09-25T03:08:53;4.13;;;1.00;;
20908;SDS011;10614;53.198;6.570;2022-09-25T03:10:55;2.28;;;1.20;;
20908;SDS011;10614;53.198;6.570;2022-09-25T03:13:10;3.17;;;1.52;;
20908;SDS011;10614;53.198;6.570;2022-09-25T03:15:13;1.60;;;0.95;;
20908;SDS011;10614;53.198;6.570;2022-09-25T03:17:14;3.55;;;1.00;;
20908;SDS011;10614;53.198;6.570;2022-09-25T03:19:19;2.65;;;1.10;;
20908;SDS011;10614;53.198;6.570;2022-09-25T03:21:20;2.17;;;1.00;;
20908;SDS011;10614;53.198;6.570;2022-09-25T03:23:23;2.03;;;1.00;;
20908;SDS011;10614;53.198;6.570;2022-09-25T03:25:25;3.95;;;1.20;;
20908;SDS011;10614;53.198;6.570;2022-09-25T03:27:27;3.05;;;1.17;;
20908;SDS011;10614;53.198;6.570;2022-09-25T03:29:29;1.88;;;1.00;;
20908;SDS011;10614;53.198;6.570;2022-09-25T03:31:30;3.38;;;1.10;;
20908;SDS011;10614;53.198;6.570;2022-09-25T03:33:33;2.58;;;1.13;;
20908;SDS011;10614;53.198;6.570;2022-09-25T03:35:36;1.92;;;1.05;;
20908;SDS011;10614;53.198;6.570;2022-09-25T03:37:38;3.45;;;1.17;;
20908;SDS011;10614;53.198;6.570;2022-09-25T03:39:41;2.80;;;1.58;;
20908;SDS011;10614;53.198;6.570;2022-09-25T03:41:43;3.35;;;1.60;;
20908;SDS011;10614;53.198;6.570;2022-09-25T03:43:45;2.33;;;1.00;;
20908;SDS011;10614;53.198;6.570;2022-09-25T03:45:50;2.63;;;1.20;;
20908;SDS011;10614;53.198;6.570;2022-09-25T03:47:52;1.83;;;1.00;;
20908;SDS011;10614;53.198;6.570;2022-09-25T03:49:53;3.78;;;1.13;;
20908;SDS011;10614;53.198;6.570;2022-09-25T03:51:55;2.10;;;1.10;;
20908;SDS011;10614;53.198;6.570;2022-09-25T03:53:59;2.20;;;1.10;;
20908;SDS011;10614;53.198;6.570;2022-09-25T03:56:03;2.25;;;1.20;;
20908;SDS011;10614;53.198;6.570;2022-09-25T03:58:06;2.78;;;1.17;;
20908;SDS011;10614;53.198;6.570;2022-09-25T04:00:09;1.67;;;1.00;;
20908;SDS011;10614;53.198;6.570;2022-09-25T04:02:12;2.10;;;1.33;;
20908;SDS011;10614;53.198;6.570;2022-09-25T04:04:14;2.67;;;1.05;;
20908;SDS011;10614;53.198;6.570;2022-09-25T04:06:16;1.80;;;0.93;;
20908;SDS011;10614;53.198;6.570;2022-09-25T04:08:19;2.50;;;1.30;;
20908;SDS011;10614;53.198;6.570;2022-09-25T04:10:20;3.60;;;0.98;;
20908;SDS011;10614;53.198;6.570;2022-09-25T04:12:23;3.55;;;1.50;;
20908;SDS011;10614;53.198;6.570;2022-09-25T04:14:25;2.83;;;1.20;;
20908;SDS011;10614;53.198;6.570;2022-09-25T04:16:27;2.05;;;0.90;;
20908;SDS011;10614;53.198;6.570;2022-09-25T04:18:30;1.95;;;0.90;;
20908;SDS011;10614;53.198;6.570;2022-09-25T04:20:32;1.98;;;1.00;;
20908;SDS011;10614;53.198;6.570;2022-09-25T04:22:34;3.17;;;1.30;;
20908;SDS011;10614;53.198;6.570;2022-09-25T04:24:36;2.80;;;1.20;;
20908;SDS011;10614;53.198;6.570;2022-09-25T04:26:49;1.25;;;0.90;;
20908;SDS011;10614;53.198;6.570;2022-09-25T04:28:54;1.55;;;0.90;;
20908;SDS011;10614;53.198;6.570;2022-09-25T04:30:55;2.25;;;1.20;;
20908;SDS011;10614;53.198;6.570;2022-09-25T04:32:57;2.03;;;1.00;;
20908;SDS011;10614;53.198;6.570;2022-09-25T04:35:16;3.28;;;1.38;;
20908;SDS011;10614;53.198;6.570;2022-09-25T04:37:18;3.88;;;1.15;;
20908;SDS011;10614;53.198;6.570;2022-09-25T04:39:21;2.17;;;1.00;;
20908;SDS011;10614;53.198;6.570;2022-09-25T04:41:23;3.35;;;1.45;;
20908;SDS011;10614;53.198;6.570;2022-09-25T04:43:26;4.10;;;1.08;;
20908;SDS011;10614;53.198;6.570;2022-09-25T04:45:29;2.05;;;0.88;;
20908;SDS011;10614;53.198;6.570;2022-09-25T04:47:33;2.10;;;0.90;;
20908;SDS011;10614;53.198;6.570;2022-09-25T04:49:34;1.35;;;0.90;;
20908;SDS011;10614;53.198;6.570;2022-09-25T04:51:36;1.92;;;1.08;;
20908;SDS011;10614;53.198;6.570;2022-09-25T04:53:38;1.75;;;0.98;;
20908;SDS011;10614;53.198;6.570;2022-09-25T04:55:40;1.52;;;0.80;;
20908;SDS011;10614;53.198;6.570;2022-09-25T04:57:42;2.60;;;0.90;;
20908;SDS011;10614;53.198;6.570;2022-09-25T04:59:43;1.25;;;0.90;;
20908;SDS011;10614;53.198;6.570;2022-09-25T05:01:48;1.65;;;1.00;;
20908;SDS011;10614;53.198;6.570;2022-09-25T05:03:50;2.03;;;0.90;;
20908;SDS011;10614;53.198;6.570;2022-09-25T05:05:52;1.73;;;0.98;;
20908;SDS011;10614;53.198;6.570;2022-09-25T05:07:54;1.90;;;1.00;;
20908;SDS011;10614;53.198;6.570;2022-09-25T05:09:57;2.42;;;1.08;;
20908;SDS011;10614;53.198;6.570;2022-09-25T05:11:59;2.42;;;1.20;;
20908;SDS011;10614;53.198;6.570;2022-09-25T05:14:01;3.35;;;1.02;;
20908;SDS011;10614;53.198;6.570;2022-09-25T05:16:02;2.83;;;0.98;;
20908;SDS011;10614;53.198;6.570;2022-09-25T05:18:06;2.50;;;0.90;;
20908;SDS011;10614;53.198;6.570;2022-09-25T05:20:15;2.40;;;1.30;;
20908;SDS011;10614;53.198;6.570;2022-09-25T05:22:17;1.98;;;1.00;;
20908;SDS011;10614;53.198;6.570;2022-09-25T05:24:18;1.98;;;1.40;;
20908;SDS011;10614;53.198;6.570;2022-09-25T05:26:20;3.97;;;1.40;;
20908;SDS011;10614;53.198;6.570;2022-09-25T05:28:22;2.65;;;0.90;;
20908;SDS011;10614;53.198;6.570;2022-09-25T05:30:24;2.28;;;0.88;;
20908;SDS011;10614;53.198;6.570;2022-09-25T05:32:27;3.15;;;1.00;;
20908;SDS011;10614;53.198;6.570;2022-09-25T05:34:31;2.05;;;1.05;;
20908;SDS011;10614;53.198;6.570;2022-09-25T05:36:33;4.13;;;1.23;;
20908;SDS011;10614;53.198;6.570;2022-09-25T05:38:35;2.20;;;1.02;;
20908;SDS011;10614;53.198;6.570;2022-09-25T05:40:37;1.85;;;1.05;;
20908;SDS011;10614;53.198;6.570;2022-09-25T05:42:39;1.60;;;0.80;;
20908;SDS011;10614;53.198;6.570;2022-09-25T05:44:42;1.75;;;1.00;;
20908;SDS011;10614;53.198;6.570;2022-09-25T05:46:44;1.95;;;1.02;;
20908;SDS011;10614;53.198;6.570;2022-09-25T05:48:45;2.05;;;1.02;;
20908;SDS011;10614;53.198;6.570;2022-09-25T05:50:51;2.15;;;1.27;;
20908;SDS011;10614;53.198;6.570;2022-09-25T05:52:54;2.28;;;1.20;;
20908;SDS011;10614;53.198;6.570;2022-09-25T05:54:56;2.53;;;1.33;;
20908;SDS011;10614;53.198;6.570;2022-09-25T05:56:57;2.72;;;1.17;;
20908;SDS011;10614;53.198;6.570;2022-09-25T05:58:59;2.40;;;1.40;;
20908;SDS011;10614;53.198;6.570;2022-09-25T06:01:01;2.08;;;1.20;;
20908;SDS011;10614;53.198;6.570;2022-09-25T06:03:03;3.75;;;1.27;;
20908;SDS011;10614;53.198;6.570;2022-09-25T06:05:05;3.15;;;1.50;;
20908;SDS011;10614;53.198;6.570;2022-09-25T06:07:09;2.88;;;1.13;;
20908;SDS011;10614;53.198;6.570;2022-09-25T06:09:11;3.00;;;1.48;;
20908;SDS011;10614;53.198;6.570;2022-09-25T06:11:12;2.55;;;1.27;;
20908;SDS011;10614;53.198;6.570;2022-09-25T06:13:14;3.10;;;1.45;;
20908;SDS011;10614;53.198;6.570;2022-09-25T06:15:16;2.75;;;1.40;;
20908;SDS011;10614;53.198;6.570;2022-09-25T06:17:18;2.33;;;1.25;;
20908;SDS011;10614;53.198;6.570;2022-09-25T06:19:20;1.90;;;1.10;;
20908;SDS011;10614;53.198;6.570;2022-09-25T06:21:21;2.80;;;1.30;;
20908;SDS011;10614;53.198;6.570;2022-09-25T06:23:24;4.38;;;1.50;;
20908;SDS011;10614;53.198;6.570;2022-09-25T06:25:26;2.35;;;1.23;;
20908;SDS011;10614;53.198;6.570;2022-09-25T06:27:29;2.75;;;1.35;;
20908;SDS011;10614;53.198;6.570;2022-09-25T06:29:31;3.58;;;1.58;;
20908;SDS011;10614;53.198;6.570;2022-09-25T06:31:33;3.13;;;1.58;;
20908;SDS011;10614;53.198;6.570;2022-09-25T06:33:34;5.13;;;1.65;;
20908;SDS011;10614;53.198;6.570;2022-09-25T06:35:39;3.47;;;1.30;;
20908;SDS011;10614;53.198;6.570;2022-09-25T06:37:42;2.88;;;1.40;;
20908;SDS011;10614;53.198;6.570;2022-09-25T06:39:45;3.47;;;1.60;;
20908;SDS011;10614;53.198;6.570;2022-09-25T06:41:46;3.53;;;1.33;;
20908;SDS011;10614;53.198;6.570;2022-09-25T06:43:48;2.50;;;1.50;;
20908;SDS011;10614;53.198;6.570;2022-09-25T06:45:50;3.85;;;1.50;;
20908;SDS011;10614;53.198;6.570;2022-09-25T06:47:52;2.70;;;1.58;;
20908;SDS011;10614;53.198;6.570;2022-09-25T06:49:56;2.83;;;1.40;;
20908;SDS011;10614;53.198;6.570;2022-09-25T06:51:59;4.32;;;1.60;;
20908;SDS011;10614;53.198;6.570;2022-09-25T06:54:01;3.20;;;1.20;;
20908;SDS011;10614;53.198;6.570;2022-09-25T06:56:04;2.63;;;1.60;;
20908;SDS011;10614;53.198;6.570;2022-09-25T06:58:07;5.47;;;1.83;;
20908;SDS011;10614;53.198;6.570;2022-09-25T07:00:11;3.90;;;1.65;;
20908;SDS011;10614;53.198;6.570;2022-09-25T07:02:13;2.40;;;1.30;;
20908;SDS011;10614;53.198;6.570;2022-09-25T07:04:32;5.25;;;1.50;;
20908;SDS011;10614;53.198;6.570;2022-09-25T07:06:33;3.47;;;1.48;;
20908;SDS011;10614;53.198;6.570;2022-09-25T07:08:36;4.28;;;1.70;;
20908;SDS011;10614;53.198;6.570;2022-09-25T07:10:38;3.03;;;1.35;;
20908;SDS011;10614;53.198;6.570;2022-09-25T07:12:41;2.60;;;1.40;;
20908;SDS011;10614;53.198;6.570;2022-09-25T07:14:43;3.17;;;1.50;;
20908;SDS011;10614;53.198;6.570;2022-09-25T07:16:45;2.95;;;1.58;;
20908;SDS011;10614;53.198;6.570;2022-09-25T07:18:49;2.28;;;1.27;;
20908;SDS011;10614;53.198;6.570;2022-09-25T07:20:52;2.60;;;1.30;;
20908;SDS011;10614;53.198;6.570;2022-09-25T07:23:01;5.00;;;1.77;;
20908;SDS011;10614;53.198;6.570;2022-09-25T07:25:03;3.30;;;1.50;;
20908;SDS011;10614;53.198;6.570;2022-09-25T07:27:05;3.33;;;1.60;;
20908;SDS011;10614;53.198;6.570;2022-09-25T07:29:08;4.35;;;1.58;;
20908;SDS011;10614;53.198;6.570;2022-09-25T07:31:12;3.13;;;1.77;;
20908;SDS011;10614;53.198;6.570;2022-09-25T07:33:15;4.57;;;2.10;;
20908;SDS011;10614;53.198;6.570;2022-09-25T07:35:17;4.03;;;1.73;;
20908;SDS011;10614;53.198;6.570;2022-09-25T07:37:18;3.00;;;1.70;;
20908;SDS011;10614;53.198;6.570;2022-09-25T07:39:20;3.50;;;1.73;;
20908;SDS011;10614;53.198;6.570;2022-09-25T07:41:22;3.42;;;1.55;;
20908;SDS011;10614;53.198;6.570;2022-09-25T07:43:24;5.40;;;1.85;;
20908;SDS011;10614;53.198;6.570;2022-09-25T07:45:27;5.50;;;1.67;;
20908;SDS011;10614;53.198;6.570;2022-09-25T07:47:29;2.85;;;1.45;;
20908;SDS011;10614;53.198;6.570;2022-09-25T07:49:31;4.03;;;1.90;;
20908;SDS011;10614;53.198;6.570;2022-09-25T07:51:32;4.43;;;1.52;;
20908;SDS011;10614;53.198;6.570;2022-09-25T07:53:34;3.42;;;1.67;;
20908;SDS011;10614;53.198;6.570;2022-09-25T07:55:36;2.30;;;1.05;;
20908;SDS011;10614;53.198;6.570;2022-09-25T07:57:37;4.40;;;1.33;;
20908;SDS011;10614;53.198;6.570;2022-09-25T07:59:40;2.03;;;1.02;;
20908;SDS011;10614;53.198;6.570;2022-09-25T08:01:43;2.67;;;1.17;;
20908;SDS011;10614;53.198;6.570;2022-09-25T08:03:45;2.58;;;1.10;;
20908;SDS011;10614;53.198;6.570;2022-09-25T08:05:47;2.78;;;1.00;;
20908;SDS011;10614;53.198;6.570;2022-09-25T08:07:48;3.20;;;1.00;;
20908;SDS011;10614;53.198;6.570;2022-09-25T08:09:50;1.58;;;0.95;;
20908;SDS011;10614;53.198;6.570;2022-09-25T08:11:52;3.42;;;1.67;;
20908;SDS011;10614;53.198;6.570;2022-09-25T08:13:53;1.25;;;0.80;;
20908;SDS011;10614;53.198;6.570;2022-09-25T08:15:55;5.72;;;1.23;;
20908;SDS011;10614;53.198;6.570;2022-09-25T08:18:00;2.80;;;0.80;;
20908;SDS011;10614;53.198;6.570;2022-09-25T08:20:01;2.28;;;0.45;;
20908;SDS011;10614;53.198;6.570;2022-09-25T08:22:04;1.95;;;0.70;;
20908;SDS011;10614;53.198;6.570;2022-09-25T08:24:05;1.42;;;0.60;;
20908;SDS011;10614;53.198;6.570;2022-09-25T08:26:07;4.60;;;0.85;;
20908;SDS011;10614;53.198;6.570;2022-09-25T08:28:09;2.25;;;0.40;;
20908;SDS011;10614;53.198;6.570;2022-09-25T08:30:10;2.28;;;0.93;;
20908;SDS011;10614;53.198;6.570;2022-09-25T08:32:12;2.35;;;0.70;;
20908;SDS011;10614;53.198;6.570;2022-09-25T08:34:16;1.23;;;0.52;;
20908;SDS011;10614;53.198;6.570;2022-09-25T08:36:19;1.58;;;0.60;;
20908;SDS011;10614;53.198;6.570;2022-09-25T08:38:22;1.13;;;0.57;;
20908;SDS011;10614;53.198;6.570;2022-09-25T08:40:26;1.38;;;0.85;;
20908;SDS011;10614;53.198;6.570;2022-09-25T08:42:31;2.25;;;1.00;;
20908;SDS011;10614;53.198;6.570;2022-09-25T08:44:36;5.20;;;1.02;;
20908;SDS011;10614;53.198;6.570;2022-09-25T08:46:41;1.17;;;0.75;;
20908;SDS011;10614;53.198;6.570;2022-09-25T08:49:04;1.38;;;0.68;;
20908;SDS011;10614;53.198;6.570;2022-09-25T08:53:13;3.38;;;0.88;;
20908;SDS011;10614;53.198;6.570;2022-09-25T08:55:23;3.17;;;0.63;;
20908;SDS011;10614;53.198;6.570;2022-09-25T08:57:49;2.40;;;0.70;;
20908;SDS011;10614;53.198;6.570;2022-09-25T08:59:58;1.85;;;0.50;;
20908;SDS011;10614;53.198;6.570;2022-09-25T09:02:09;6.95;;;0.82;;
20908;SDS011;10614;53.198;6.570;2022-09-25T09:04:16;2.28;;;0.68;;
20908;SDS011;10614;53.198;6.570;2022-09-25T09:06:22;1.75;;;0.50;;
20908;SDS011;10614;53.198;6.570;2022-09-25T09:08:27;1.52;;;0.55;;
20908;SDS011;10614;53.198;6.570;2022-09-25T09:10:32;6.72;;;0.77;;
20908;SDS011;10614;53.198;6.570;2022-09-25T09:12:37;0.98;;;0.40;;
20908;SDS011;10614;53.198;6.570;2022-09-25T09:14:43;3.28;;;0.65;;
20908;SDS011;10614;53.198;6.570;2022-09-25T09:16:49;1.88;;;0.70;;
20908;SDS011;10614;53.198;6.570;2022-09-25T09:18:58;3.88;;;0.82;;
20908;SDS011;10614;53.198;6.570;2022-09-25T09:21:05;2.53;;;0.50;;
20908;SDS011;10614;53.198;6.570;2022-09-25T09:23:15;0.63;;;0.50;;
20908;SDS011;10614;53.198;6.570;2022-09-25T09:25:26;1.70;;;0.88;;
20908;SDS011;10614;53.198;6.570;2022-09-25T09:27:47;1.33;;;0.60;;
20908;SDS011;10614;53.198;6.570;2022-09-25T09:30:05;1.58;;;0.40;;
20908;SDS011;10614;53.198;6.570;2022-09-25T09:32:18;0.93;;;0.50;;
20908;SDS011;10614;53.198;6.570;2022-09-25T09:34:35;1.45;;;0.60;;
20908;SDS011;10614;53.198;6.570;2022-09-25T09:36:49;0.80;;;0.50;;
20908;SDS011;10614;53.198;6.570;2022-09-25T09:39:01;2.30;;;0.70;;
20908;SDS011;10614;53.198;6.570;2022-09-25T09:41:14;2.35;;;0.60;;
20908;SDS011;10614;53.198;6.570;2022-09-25T09:43:31;1.13;;;0.60;;
20908;SDS011;10614;53.198;6.570;2022-09-25T09:45:43;1.55;;;0.90;;
20908;SDS011;10614;53.198;6.570;2022-09-25T09:47:49;4.40;;;2.13;;
20908;SDS011;10614;53.198;6.570;2022-09-25T09:50:00;3.85;;;1.83;;
20908;SDS011;10614;53.198;6.570;2022-09-25T09:52:17;2.67;;;1.33;;
20908;SDS011;10614;53.198;6.570;2022-09-25T09:54:25;2.60;;;1.33;;
20908;SDS011;10614;53.198;6.570;2022-09-25T09:56:32;1.63;;;1.08;;
20908;SDS011;10614;53.198;6.570;2022-09-25T09:58:41;1.83;;;1.00;;
20908;SDS011;10614;53.198;6.570;2022-09-25T10:00:47;2.38;;;0.80;;
20908;SDS011;10614;53.198;6.570;2022-09-25T10:02:49;1.95;;;0.80;;
20908;SDS011;10614;53.198;6.570;2022-09-25T10:04:55;2.40;;;0.90;;
20908;SDS011;10614;53.198;6.570;2022-09-25T10:07:03;0.85;;;0.50;;
20908;SDS011;10614;53.198;6.570;2022-09-25T10:09:08;2.10;;;0.70;;
20908;SDS011;10614;53.198;6.570;2022-09-25T10:11:16;1.20;;;0.60;;
20908;SDS011;10614;53.198;6.570;2022-09-25T10:13:19;2.78;;;0.77;;
20908;SDS011;10614;53.198;6.570;2022-09-25T10:15:26;1.02;;;0.50;;
20908;SDS011;10614;53.198;6.570;2022-09-25T10:17:31;2.05;;;0.60;;
20908;SDS011;10614;53.198;6.570;2022-09-25T10:19:38;2.90;;;0.80;;
20908;SDS011;10614;53.198;6.570;2022-09-25T10:21:48;1.77;;;0.57;;
20908;SDS011;10614;53.198;6.570;2022-09-25T10:23:54;2.17;;;0.70;;
20908;SDS011;10614;53.198;6.570;2022-09-25T10:25:57;1.13;;;0.50;;
20908;SDS011;10614;53.198;6.570;2022-09-25T10:28:01;1.08;;;0.80;;
20908;SDS011;10614;53.198;6.570;2022-09-25T10:30:22;1.05;;;0.65;;
20908;SDS011;10614;53.198;6.570;2022-09-25T10:32:23;1.75;;;0.77;;
20908;SDS011;10614;53.198;6.570;2022-09-25T10:34:25;2.20;;;0.68;;
20908;SDS011;10614;53.198;6.570;2022-09-25T10:36:36;1.77;;;0.73;;
20908;SDS011;10614;53.198;6.570;2022-09-25T10:38:42;0.93;;;0.50;;
20908;SDS011;10614;53.198;6.570;2022-09-25T10:40:55;0.60;;;0.50;;
20908;SDS011;10614;53.198;6.570;2022-09-25T10:43:15;4.07;;;0.73;;
20908;SDS011;10614;53.198;6.570;2022-09-25T10:45:29;2.53;;;0.65;;
20908;SDS011;10614;53.198;6.570;2022-09-25T10:47:32;0.90;;;0.70;;
20908;SDS011;10614;53.198;6.570;2022-09-25T10:49:51;0.75;;;0.47;;
20908;SDS011;10614;53.198;6.570;2022-09-25T10:52:11;2.35;;;0.68;;
20908;SDS011;10614;53.198;6.570;2022-09-25T10:54:14;1.27;;;0.57;;
20908;SDS011;10614;53.198;6.570;2022-09-25T10:56:18;3.38;;;0.50;;
20908;SDS011;10614;53.198;6.570;2022-09-25T10:58:29;0.90;;;0.40;;
20908;SDS011;10614;53.198;6.570;2022-09-25T11:00:37;2.42;;;0.63;;
20908;SDS011;10614;53.198;6.570;2022-09-25T11:02:43;3.00;;;0.70;;
20908;SDS011;10614;53.198;6.570;2022-09-25T11:04:46;1.63;;;0.45;;
20908;SDS011;10614;53.198;6.570;2022-09-25T11:06:52;2.08;;;0.77;;
20908;SDS011;10614;53.198;6.570;2022-09-25T11:09:01;0.50;;;0.40;;
20908;SDS011;10614;53.198;6.570;2022-09-25T11:11:07;2.35;;;0.65;;
20908;SDS011;10614;53.198;6.570;2022-09-25T11:13:16;2.88;;;0.20;;
20908;SDS011;10614;53.198;6.570;2022-09-25T11:15:25;4.85;;;0.40;;
20908;SDS011;10614;53.198;6.570;2022-09-25T11:17:29;3.72;;;0.77;;
20908;SDS011;10614;53.198;6.570;2022-09-25T11:19:32;0.40;;;0.30;;
20908;SDS011;10614;53.198;6.570;2022-09-25T11:21:36;1.48;;;0.40;;
20908;SDS011;10614;53.198;6.570;2022-09-25T11:23:47;0.82;;;0.40;;
20908;SDS011;10614;53.198;6.570;2022-09-25T11:26:02;0.90;;;0.55;;
20908;SDS011;10614;53.198;6.570;2022-09-25T11:28:10;2.25;;;0.40;;
20908;SDS011;10614;53.198;6.570;2022-09-25T11:30:16;4.03;;;0.45;;
20908;SDS011;10614;53.198;6.570;2022-09-25T11:32:23;0.90;;;0.50;;
20908;SDS011;10614;53.198;6.570;2022-09-25T11:34:34;0.68;;;0.40;;
20908;SDS011;10614;53.198;6.570;2022-09-25T11:36:52;1.63;;;0.55;;
20908;SDS011;10614;53.198;6.570;2022-09-25T11:39:01;1.83;;;0.38;;
20908;SDS011;10614;53.198;6.570;2022-09-25T11:43:32;4.22;;;0.57;;
20908;SDS011;10614;53.198;6.570;2022-09-25T11:45:57;1.65;;;0.40;;
20908;SDS011;10614;53.198;6.570;2022-09-25T11:48:09;0.65;;;0.30;;
20908;SDS011;10614;53.198;6.570;2022-09-25T11:50:24;0.95;;;0.50;;
20908;SDS011;10614;53.198;6.570;2022-09-25T11:52:36;0.32;;;0.22;;
20908;SDS011;10614;53.198;6.570;2022-09-25T11:54:42;2.20;;;0.40;;
20908;SDS011;10614;53.198;6.570;2022-09-25T11:56:54;0.85;;;0.35;;
20908;SDS011;10614;53.198;6.570;2022-09-25T11:59:16;0.47;;;0.32;;
20908;SDS011;10614;53.198;6.570;2022-09-25T12:01:28;1.17;;;0.45;;
20908;SDS011;10614;53.198;6.570;2022-09-25T12:03:39;2.72;;;0.50;;
20908;SDS011;10614;53.198;6.570;2022-09-25T12:06:03;0.57;;;0.30;;
20908;SDS011;10614;53.198;6.570;2022-09-25T12:08:24;0.75;;;0.40;;
20908;SDS011;10614;53.198;6.570;2022-09-25T12:10:39;1.27;;;0.22;;
20908;SDS011;10614;53.198;6.570;2022-09-25T12:12:50;2.35;;;0.40;;
20908;SDS011;10614;53.198;6.570;2022-09-25T12:15:00;0.90;;;0.43;;
20908;SDS011;10614;53.198;6.570;2022-09-25T12:17:14;2.00;;;0.40;;
20908;SDS011;10614;53.198;6.570;2022-09-25T12:19:25;3.65;;;0.60;;
20908;SDS011;10614;53.198;6.570;2022-09-25T12:21:38;3.13;;;0.82;;
20908;SDS011;10614;53.198;6.570;2022-09-25T12:23:48;4.30;;;1.42;;
20908;SDS011;10614;53.198;6.570;2022-09-25T12:26:02;2.25;;;0.60;;
20908;SDS011;10614;53.198;6.570;2022-09-25T12:28:16;1.90;;;0.73;;
20908;SDS011;10614;53.198;6.570;2022-09-25T12:30:26;2.65;;;0.47;;
20908;SDS011;10614;53.198;6.570;2022-09-25T12:32:39;1.50;;;0.38;;
20908;SDS011;10614;53.198;6.570;2022-09-25T12:35:02;1.45;;;0.50;;
20908;SDS011;10614;53.198;6.570;2022-09-25T12:37:16;3.95;;;0.50;;
20908;SDS011;10614;53.198;6.570;2022-09-25T12:39:26;2.72;;;0.52;;
20908;SDS011;10614;53.198;6.570;2022-09-25T12:41:33;0.80;;;0.43;;
20908;SDS011;10614;53.198;6.570;2022-09-25T12:43:41;0.75;;;0.30;;
20908;SDS011;10614;53.198;6.570;2022-09-25T12:45:47;1.02;;;0.40;;